A- A+ FrançaisEnglishEspañol中国

Services sur Internet Soldes sur Internet Des idées de cadeaux Météo Météo aéro

La météo à : Autours de vous Tarbes-Lourdes-PyrénéesNimes-Courbessac Toulouse-BlagnacAnnecy-Meythet

La météo aéronautique pour les pilotes, la préparation du vol avec les METAR (METeorological Aerodrome Report, message d'observation des conditions météorologiques pour l'aviation) et Les TAF (Terminal Aerodrome Forecast : message de prévision à court terme des conditions météorologiques pour l'aviation). Et les autres ressources comme les VAC (Visual Approch Chart) et les NOTAM (Notice To Airman) pour préprer les vols.

Aéroport Campbell River (Canada) / OACI CYBL/ IATA YBL

L'altitude de l'aéroport Campbell River est de 105 m = 344 ft. Il est situé à proximité de Campbell River (Canada). La météo générale à 5 jours est disponible pour Campbell River situé à 7.5 km.

METAR de l'aéroport Campbell River - CYBL

CYBL 041900Z CCA 12003KT 3/4SM R12/6000FT/D -DZ BR OVC003 09/09 A3024 RMK SF8 CIG VRB 2-4 SLP246

Décodage du METAR de l'aéroport Campbell River (CA)

METAR émis par CYBL le lundi 4 novembre 2019 à 19:00 heure TU. Attention ce METAR est obsolète car il a été émis il y a 1 heure et 36 minutes.

La visibilité est de 1.2 km = 0.75 sm.

La température est de 9°C = 48 °F et le point rosée est de 9°C = 48 °F . Ce qui correspond à 100% d'humidité relative.

Le QNH est de 1024 hPa = 30.24 inHg

Vent de 3 kt = 6 km/h, orienté à 120°.

Nuages : Couverture nuageuse soudée à 300 ft = 90 mètres.

-DZ BR

RMK SF8 CIG VRB 2-4 SLP246

TAF de l'aéroport Campbell River - CYBL

CYBL 041838Z 0419/0505 VRB03KT P6SM SCT005 OVC015 TEMPO 0419/0422 3/4SM -DZ BR BKN003 OVC010 FM042200 VRB03KT P6SM SCT005 BKN015 TEMPO 0422/0505 5SM -DZ BR BKN005 OVC012 RMK NXT FCST BY 050100Z

CYBL 041838Z 0419/0505 VRB03KT P6SM nuages épars à 005 couverture nuageuse soudée à 015 temporairement 0419/0422 3/4SM faible DZ brume couverture nuageuse fragmentée à 003 couverture nuageuse soudée à 010 FM042200 VRB03KT P6SM nuages épars à 005 couverture nuageuse fragmentée à 015 temporairement 0422/0505 5SM faible DZ brume couverture nuageuse fragmentée à 005 couverture nuageuse soudée à 012 remarques NXT trombe ST BY 050100Z

Aéroport à proximité de Campbell River

Météo générale à 5 jours à Campbell River (7.5 km)Aéroport Comox (38 km)Aéroport Powell River (57 km)Aéroport Texada Gillies Bay (61 km)Aéroport Tofino (103 km)Aéroport Alert Bay (136 km)Aéroport Nanaimo (142 km)

Vue aérienne de l'aéroport Campbell River

NOTAM de l'aéroport Campbell River

Les NOTAM sont fournis sans aucune garantie de leur actualité. Le pilote est le seul responsable de la vérification de sa validité avant de l'utiliser opérationnellement pour préparer un vol ou l'utiliser lors de sa navigation.

Pas de NOTAM

Sources des données